sensor_id;sensor_type;location;lat;lon;timestamp;pressure;altitude;pressure_sealevel;temperature;humidity
67517;BME280;54359;59.124;37.910;2022-09-13T00:00:43;100175.78;;;9.21;67.62
67517;BME280;54359;59.124;37.910;2022-09-13T00:03:10;100184.25;;;9.18;67.17
67517;BME280;54359;59.124;37.910;2022-09-13T00:05:37;100175.63;;;9.13;67.39
67517;BME280;54359;59.124;37.910;2022-09-13T00:08:05;100165.25;;;9.07;67.83
67517;BME280;54359;59.124;37.910;2022-09-13T00:10:33;100176.38;;;9.07;68.03
67517;BME280;54359;59.124;37.910;2022-09-13T00:12:59;100172.84;;;9.02;68.17
67517;BME280;54359;59.124;37.910;2022-09-13T00:15:26;100178.75;;;9.00;68.16
67517;BME280;54359;59.124;37.910;2022-09-13T00:17:52;100169.31;;;8.97;67.80
67517;BME280;54359;59.124;37.910;2022-09-13T00:20:18;100169.28;;;8.96;68.26
67517;BME280;54359;59.124;37.910;2022-09-13T00:22:44;100169.28;;;8.94;67.90
67517;BME280;54359;59.124;37.910;2022-09-13T00:25:10;100175.19;;;8.90;67.54
67517;BME280;54359;59.124;37.910;2022-09-13T00:27:36;100176.00;;;8.89;68.25
67517;BME280;54359;59.124;37.910;2022-09-13T00:30:07;100169.03;;;8.82;68.48
67517;BME280;54359;59.124;37.910;2022-09-13T00:32:34;100180.13;;;8.82;68.50
67517;BME280;54359;59.124;37.910;2022-09-13T00:35:01;100177.50;;;8.79;68.34
67517;BME280;54359;59.124;37.910;2022-09-13T00:37:29;100183.38;;;8.75;68.35
67517;BME280;54359;59.124;37.910;2022-09-13T00:39:54;100173.00;;;8.68;68.01
67517;BME280;54359;59.124;37.910;2022-09-13T00:42:26;100175.44;;;8.63;68.42
67517;BME280;54359;59.124;37.910;2022-09-13T00:47:56;100183.00;;;8.55;68.82
67517;BME280;54359;59.124;37.910;2022-09-13T00:50:36;100175.97;;;8.48;68.92
67517;BME280;54359;59.124;37.910;2022-09-13T00:53:13;100175.00;;;8.41;68.53
67517;BME280;54359;59.124;37.910;2022-09-13T00:55:59;100172.31;;;8.37;68.20
67517;BME280;54359;59.124;37.910;2022-09-13T00:58:47;100176.47;;;8.33;68.67
67517;BME280;54359;59.124;37.910;2022-09-13T01:01:14;100173.78;;;8.27;68.36
67517;BME280;54359;59.124;37.910;2022-09-13T01:03:42;100177.16;;;8.24;68.18
67517;BME280;54359;59.124;37.910;2022-09-13T01:06:26;100174.44;;;8.18;68.64
67517;BME280;54359;59.124;37.910;2022-09-13T01:08:58;100171.75;;;8.14;68.83
67517;BME280;54359;59.124;37.910;2022-09-13T01:11:34;100177.72;;;8.13;68.77
67517;BME280;54359;59.124;37.910;2022-09-13T01:14:04;100173.41;;;8.12;69.09
67517;BME280;54359;59.124;37.910;2022-09-13T01:16:31;100175.97;;;8.10;68.82
67517;BME280;54359;59.124;37.910;2022-09-13T01:18:57;100169.84;;;8.05;68.93
67517;BME280;54359;59.124;37.910;2022-09-13T01:21:29;100175.91;;;8.09;69.08
67517;BME280;54359;59.124;37.910;2022-09-13T01:27:14;100177.47;;;8.03;69.00
67517;BME280;54359;59.124;37.910;2022-09-13T01:30:07;100179.16;;;8.01;69.41
67517;BME280;54359;59.124;37.910;2022-09-13T01:52:23;100170.22;;;7.84;69.28
67517;BME280;54359;59.124;37.910;2022-09-13T01:55:07;100175.31;;;7.84;69.31
67517;BME280;54359;59.124;37.910;2022-09-13T02:00:27;100171.88;;;7.82;69.60
67517;BME280;54359;59.124;37.910;2022-09-13T02:03:13;100172.72;;;7.82;69.13
67517;BME280;54359;59.124;37.910;2022-09-13T02:11:13;100162.44;;;7.81;69.41
67517;BME280;54359;59.124;37.910;2022-09-13T02:16:18;100162.44;;;7.79;69.70
67517;BME280;54359;59.124;37.910;2022-09-13T02:18:49;100155.38;;;7.71;69.75
67517;BME280;54359;59.124;37.910;2022-09-13T02:21:24;100158.63;;;7.63;69.62
67517;BME280;54359;59.124;37.910;2022-09-13T02:26:30;100157.88;;;7.36;70.23
67517;BME280;54359;59.124;37.910;2022-09-13T02:29:01;100150.72;;;7.22;70.00
67517;BME280;54359;59.124;37.910;2022-09-13T02:31:35;100158.03;;;7.09;69.76
67517;BME280;54359;59.124;37.910;2022-09-13T02:34:11;100157.63;;;6.93;70.13
67517;BME280;54359;59.124;37.910;2022-09-13T02:36:39;100159.91;;;6.84;69.91
67517;BME280;54359;59.124;37.910;2022-09-13T02:39:11;100162.09;;;6.72;70.22
67517;BME280;54359;59.124;37.910;2022-09-13T02:44:12;100162.59;;;6.58;69.98
67517;BME280;54359;59.124;37.910;2022-09-13T02:52:46;100158.94;;;6.50;70.22
67517;BME280;54359;59.124;37.910;2022-09-13T02:54:41;100157.19;;;6.49;70.69
67517;BME280;54359;59.124;37.910;2022-09-13T02:57:14;100156.38;;;6.50;70.72
67517;BME280;54359;59.124;37.910;2022-09-13T02:59:45;100140.16;;;6.48;70.27
67517;BME280;54359;59.124;37.910;2022-09-13T03:02:14;100154.81;;;6.55;70.26
67517;BME280;54359;59.124;37.910;2022-09-13T03:04:42;100135.13;;;6.51;70.18
67517;BME280;54359;59.124;37.910;2022-09-13T03:07:11;100152.44;;;6.61;70.90
67517;BME280;54359;59.124;37.910;2022-09-13T03:09:45;100148.34;;;6.67;70.85
67517;BME280;54359;59.124;37.910;2022-09-13T03:12:32;100156.09;;;6.70;70.35
67517;BME280;54359;59.124;37.910;2022-09-13T03:20:40;100159.00;;;6.82;70.64
67517;BME280;54359;59.124;37.910;2022-09-13T03:23:12;100161.59;;;6.83;70.77
67517;BME280;54359;59.124;37.910;2022-09-13T03:26:05;100145.41;;;6.83;70.83
67517;BME280;54359;59.124;37.910;2022-09-13T03:28:42;100150.75;;;6.92;70.81
67517;BME280;54359;59.124;37.910;2022-09-13T03:31:20;100150.06;;;6.98;70.43
67517;BME280;54359;59.124;37.910;2022-09-13T03:33:55;100156.13;;;7.01;70.91
67517;BME280;54359;59.124;37.910;2022-09-13T03:41:42;100154.81;;;7.16;70.62
67517;BME280;54359;59.124;37.910;2022-09-13T03:44:12;100157.66;;;7.27;70.96
67517;BME280;54359;59.124;37.910;2022-09-13T03:46:48;100151.00;;;7.33;70.46
67517;BME280;54359;59.124;37.910;2022-09-13T03:49:17;100151.13;;;7.38;70.69
67517;BME280;54359;59.124;37.910;2022-09-13T03:51:49;100151.44;;;7.49;70.96
67517;BME280;54359;59.124;37.910;2022-09-13T03:54:22;100155.84;;;7.56;70.37
67517;BME280;54359;59.124;37.910;2022-09-13T03:57:12;100150.88;;;7.62;70.74
67517;BME280;54359;59.124;37.910;2022-09-13T03:59:44;100142.41;;;7.63;70.51
67517;BME280;54359;59.124;37.910;2022-09-13T04:02:11;100140.91;;;7.73;70.50
67517;BME280;54359;59.124;37.910;2022-09-13T04:04:41;100152.34;;;7.85;70.86
67517;BME280;54359;59.124;37.910;2022-09-13T04:07:09;100158.41;;;7.91;70.16
67517;BME280;54359;59.124;37.910;2022-09-13T04:09:35;100161.06;;;7.95;70.88
67517;BME280;54359;59.124;37.910;2022-09-13T04:12:01;100155.16;;;7.96;69.96
67517;BME280;54359;59.124;37.910;2022-09-13T04:14:27;100164.72;;;8.05;70.57
67517;BME280;54359;59.124;37.910;2022-09-13T04:16:54;100159.69;;;8.08;70.37
67517;BME280;54359;59.124;37.910;2022-09-13T04:19:22;100164.06;;;8.12;70.66
67517;BME280;54359;59.124;37.910;2022-09-13T04:21:50;100167.63;;;8.19;70.73
67517;BME280;54359;59.124;37.910;2022-09-13T04:24:16;100154.78;;;8.17;70.67
67517;BME280;54359;59.124;37.910;2022-09-13T04:26:44;100166.16;;;8.29;70.79
67517;BME280;54359;59.124;37.910;2022-09-13T04:29:10;100164.41;;;8.27;70.46
67517;BME280;54359;59.124;37.910;2022-09-13T04:31:36;100167.13;;;8.35;70.16
67517;BME280;54359;59.124;37.910;2022-09-13T04:34:02;100168.25;;;8.45;70.02
67517;BME280;54359;59.124;37.910;2022-09-13T04:36:28;100154.63;;;8.48;70.49
67517;BME280;54359;59.124;37.910;2022-09-13T04:38:56;100161.66;;;8.56;70.55
67517;BME280;54359;59.124;37.910;2022-09-13T04:41:27;100170.50;;;8.71;70.90
67517;BME280;54359;59.124;37.910;2022-09-13T04:43:53;100154.28;;;8.72;70.28
67517;BME280;54359;59.124;37.910;2022-09-13T04:46:20;100158.78;;;8.82;70.75
67517;BME280;54359;59.124;37.910;2022-09-13T04:48:48;100161.47;;;8.90;70.51
67517;BME280;54359;59.124;37.910;2022-09-13T04:51:17;100162.47;;;8.96;70.24
67517;BME280;54359;59.124;37.910;2022-09-13T04:53:44;100161.66;;;8.99;69.93
67517;BME280;54359;59.124;37.910;2022-09-13T04:56:10;100163.50;;;9.04;70.12
67517;BME280;54359;59.124;37.910;2022-09-13T04:58:39;100157.63;;;9.12;70.54
67517;BME280;54359;59.124;37.910;2022-09-13T05:01:08;100151.81;;;9.20;70.37
67517;BME280;54359;59.124;37.910;2022-09-13T05:03:36;100154.56;;;9.30;70.03
67517;BME280;54359;59.124;37.910;2022-09-13T05:06:05;100149.59;;;9.39;70.03
67517;BME280;54359;59.124;37.910;2022-09-13T05:08:32;100143.75;;;9.46;70.43
67517;BME280;54359;59.124;37.910;2022-09-13T05:10:59;100150.03;;;9.65;70.25
67517;BME280;54359;59.124;37.910;2022-09-13T05:13:25;100144.22;;;9.75;69.85
67517;BME280;54359;59.124;37.910;2022-09-13T05:16:02;100152.22;;;9.94;70.07
67517;BME280;54359;59.124;37.910;2022-09-13T05:18:30;100149.84;;;10.06;69.89
67517;BME280;54359;59.124;37.910;2022-09-13T05:20:58;100148.31;;;10.17;69.91
67517;BME280;54359;59.124;37.910;2022-09-13T05:23:25;100146.72;;;10.25;69.51
67517;BME280;54359;59.124;37.910;2022-09-13T05:25:59;100145.22;;;10.38;70.02
67517;BME280;54359;59.124;37.910;2022-09-13T05:28:29;100139.31;;;10.47;69.66
67517;BME280;54359;59.124;37.910;2022-09-13T05:31:06;100146.38;;;10.60;69.97
67517;BME280;54359;59.124;37.910;2022-09-13T05:33:37;100138.78;;;10.71;69.62
67517;BME280;54359;59.124;37.910;2022-09-13T05:36:04;100127.69;;;10.75;69.34
67517;BME280;54359;59.124;37.910;2022-09-13T05:38:31;100128.66;;;10.83;69.18
67517;BME280;54359;59.124;37.910;2022-09-13T05:41:02;100143.44;;;11.01;69.16
67517;BME280;54359;59.124;37.910;2022-09-13T05:43:30;100146.09;;;11.11;69.28
67517;BME280;54359;59.124;37.910;2022-09-13T05:46:18;100142.78;;;11.22;69.08
67517;BME280;54359;59.124;37.910;2022-09-13T05:48:47;100142.06;;;11.34;69.17
67517;BME280;54359;59.124;37.910;2022-09-13T05:51:17;100149.09;;;11.51;68.99
67517;BME280;54359;59.124;37.910;2022-09-13T05:53:50;100143.19;;;11.61;68.96
67517;BME280;54359;59.124;37.910;2022-09-13T05:56:19;100139.81;;;11.73;69.02
67517;BME280;54359;59.124;37.910;2022-09-13T05:58:46;100141.63;;;11.84;68.73
67517;BME280;54359;59.124;37.910;2022-09-13T06:01:18;100146.91;;;11.97;68.65
67517;BME280;54359;59.124;37.910;2022-09-13T06:03:49;100143.56;;;12.07;68.94
67517;BME280;54359;59.124;37.910;2022-09-13T06:06:41;100143.66;;;12.21;68.78
67517;BME280;54359;59.124;37.910;2022-09-13T06:09:14;100143.72;;;12.36;68.60
67517;BME280;54359;59.124;37.910;2022-09-13T06:12:13;100140.41;;;12.51;68.58
67517;BME280;54359;59.124;37.910;2022-09-13T06:14:43;100137.88;;;12.62;68.27
67517;BME280;54359;59.124;37.910;2022-09-13T06:17:09;100138.78;;;12.72;67.94
67517;BME280;54359;59.124;37.910;2022-09-13T06:19:53;100146.53;;;12.85;68.14
67517;BME280;54359;59.124;37.910;2022-09-13T06:22:21;100137.97;;;12.91;68.24
67517;BME280;54359;59.124;37.910;2022-09-13T06:24:47;100138.00;;;12.97;67.65
67517;BME280;54359;59.124;37.910;2022-09-13T06:27:13;100136.28;;;12.99;68.18
67517;BME280;54359;59.124;37.910;2022-09-13T06:29:39;100124.28;;;13.04;67.62
67517;BME280;54359;59.124;37.910;2022-09-13T06:32:05;100125.16;;;13.13;67.56
67517;BME280;54359;59.124;37.910;2022-09-13T06:34:31;100148.44;;;13.34;67.73
67517;BME280;54359;59.124;37.910;2022-09-13T06:37:02;100145.88;;;13.45;68.04
67517;BME280;54359;59.124;37.910;2022-09-13T06:39:28;100141.56;;;13.53;67.36
67517;BME280;54359;59.124;37.910;2022-09-13T06:41:57;100151.06;;;13.60;67.33
67517;BME280;54359;59.124;37.910;2022-09-13T06:44:43;100135.56;;;13.59;67.47
67517;BME280;54359;59.124;37.910;2022-09-13T06:47:29;100131.25;;;13.65;66.87
67517;BME280;54359;59.124;37.910;2022-09-13T06:50:01;100150.22;;;13.83;67.28
67517;BME280;54359;59.124;37.910;2022-09-13T06:52:27;100153.66;;;13.86;66.90
67517;BME280;54359;59.124;37.910;2022-09-13T06:54:53;100160.56;;;13.91;67.40
67517;BME280;54359;59.124;37.910;2022-09-13T06:57:21;100159.69;;;14.01;67.27
67517;BME280;54359;59.124;37.910;2022-09-13T06:59:46;100143.31;;;13.97;66.79
67517;BME280;54359;59.124;37.910;2022-09-13T07:02:15;100144.16;;;14.04;67.08
67517;BME280;54359;59.124;37.910;2022-09-13T07:04:45;100142.41;;;14.17;66.62
67517;BME280;54359;59.124;37.910;2022-09-13T07:07:16;100153.63;;;14.20;66.47
67517;BME280;54359;59.124;37.910;2022-09-13T07:09:44;100156.19;;;14.28;66.92
67517;BME280;54359;59.124;37.910;2022-09-13T07:12:11;100147.56;;;14.32;66.82
67517;BME280;54359;59.124;37.910;2022-09-13T07:14:41;100147.56;;;14.35;66.46
67517;BME280;54359;59.124;37.910;2022-09-13T07:17:12;100156.16;;;14.45;66.19
67517;BME280;54359;59.124;37.910;2022-09-13T07:20:04;100161.31;;;14.54;66.25
67517;BME280;54359;59.124;37.910;2022-09-13T07:22:32;100159.59;;;14.55;66.17
67517;BME280;54359;59.124;37.910;2022-09-13T07:25:02;100159.56;;;14.64;66.24
67517;BME280;54359;59.124;37.910;2022-09-13T07:27:56;100158.69;;;14.69;65.96
67517;BME280;54359;59.124;37.910;2022-09-13T07:30:35;100152.66;;;14.74;65.66
67517;BME280;54359;59.124;37.910;2022-09-13T07:33:38;100147.44;;;14.80;65.61
67517;BME280;54359;59.124;37.910;2022-09-13T07:37:03;100162.06;;;14.93;65.29
67517;BME280;54359;59.124;37.910;2022-09-13T07:39:29;100129.34;;;14.81;65.24
67517;BME280;54359;59.124;37.910;2022-09-13T07:42:37;100152.50;;;15.03;65.01
67517;BME280;54359;59.124;37.910;2022-09-13T07:45:08;100156.81;;;15.10;64.81
67517;BME280;54359;59.124;37.910;2022-09-13T07:47:39;100143.84;;;15.07;64.86
67517;BME280;54359;59.124;37.910;2022-09-13T07:50:19;100151.63;;;15.12;64.78
67517;BME280;54359;59.124;37.910;2022-09-13T07:52:45;100145.53;;;15.17;64.60
67517;BME280;54359;59.124;37.910;2022-09-13T07:55:13;100119.66;;;15.13;64.68
67517;BME280;54359;59.124;37.910;2022-09-13T07:57:45;100150.63;;;15.29;64.48
67517;BME280;54359;59.124;37.910;2022-09-13T08:00:13;100144.59;;;15.29;64.20
67517;BME280;54359;59.124;37.910;2022-09-13T08:02:41;100141.16;;;15.25;64.01
67517;BME280;54359;59.124;37.910;2022-09-13T08:05:17;100140.31;;;15.23;63.95
67517;BME280;54359;59.124;37.910;2022-09-13T08:07:43;100140.31;;;15.23;63.64
67517;BME280;54359;59.124;37.910;2022-09-13T08:10:09;100129.94;;;15.28;63.83
67517;BME280;54359;59.124;37.910;2022-09-13T08:12:40;100136.75;;;15.40;63.69
67517;BME280;54359;59.124;37.910;2022-09-13T08:15:06;100127.19;;;15.48;63.68
67517;BME280;54359;59.124;37.910;2022-09-13T08:17:35;100130.59;;;15.56;63.43
67517;BME280;54359;59.124;37.910;2022-09-13T08:20:26;100132.28;;;15.60;63.17
67517;BME280;54359;59.124;37.910;2022-09-13T08:22:53;100124.56;;;15.54;63.12
67517;BME280;54359;59.124;37.910;2022-09-13T08:25:26;100126.31;;;15.55;63.03
67517;BME280;54359;59.124;37.910;2022-09-13T08:27:52;100124.56;;;15.57;62.93
67517;BME280;54359;59.124;37.910;2022-09-13T08:30:18;100123.63;;;15.64;62.85
67517;BME280;54359;59.124;37.910;2022-09-13T08:32:50;100125.34;;;15.67;62.73
67517;BME280;54359;59.124;37.910;2022-09-13T08:35:18;100127.06;;;15.69;62.76
67517;BME280;54359;59.124;37.910;2022-09-13T08:38:33;100128.75;;;15.70;62.51
67517;BME280;54359;59.124;37.910;2022-09-13T08:45:04;100112.34;;;15.72;62.20
67517;BME280;54359;59.124;37.910;2022-09-13T08:48:43;100120.09;;;15.78;62.23
67517;BME280;54359;59.124;37.910;2022-09-13T08:54:35;100080.44;;;15.63;61.91
67517;BME280;54359;59.124;37.910;2022-09-13T08:57:36;100076.06;;;15.68;61.74
67517;BME280;54359;59.124;37.910;2022-09-13T09:00:26;100110.41;;;15.97;61.64
67517;BME280;54359;59.124;37.910;2022-09-13T09:05:51;100085.34;;;15.97;61.35
67517;BME280;54359;59.124;37.910;2022-09-13T09:08:37;100103.41;;;16.08;61.59
67517;BME280;54359;59.124;37.910;2022-09-13T09:17:01;100059.41;;;15.99;61.00
67517;BME280;54359;59.124;37.910;2022-09-13T09:19:35;100092.00;;;16.21;60.88
67517;BME280;54359;59.124;37.910;2022-09-13T09:22:23;100075.66;;;16.15;60.93
67517;BME280;54359;59.124;37.910;2022-09-13T09:24:57;100047.34;;;15.96;60.71
67517;BME280;54359;59.124;37.910;2022-09-13T09:27:55;100082.53;;;16.17;60.78
67517;BME280;54359;59.124;37.910;2022-09-13T09:30:32;100055.91;;;16.01;60.59
67517;BME280;54359;59.124;37.910;2022-09-13T09:39:09;100072.16;;;16.20;60.20
67517;BME280;54359;59.124;37.910;2022-09-13T09:41:48;100055.75;;;16.17;60.26
67517;BME280;54359;59.124;37.910;2022-09-13T09:44:32;100036.06;;;15.99;60.06
67517;BME280;54359;59.124;37.910;2022-09-13T09:47:21;100072.03;;;16.28;60.06
67517;BME280;54359;59.124;37.910;2022-09-13T09:49:54;100063.38;;;16.31;60.19
67517;BME280;54359;59.124;37.910;2022-09-13T09:53:03;100066.78;;;16.36;59.79
67517;BME280;54359;59.124;37.910;2022-09-13T09:55:43;100057.31;;;16.30;59.70
67517;BME280;54359;59.124;37.910;2022-09-13T09:58:11;100049.59;;;16.25;59.90
67517;BME280;54359;59.124;37.910;2022-09-13T10:00:54;100034.88;;;16.26;59.79
67517;BME280;54359;59.124;37.910;2022-09-13T10:07:08;100055.50;;;16.38;59.60
67517;BME280;54359;59.124;37.910;2022-09-13T10:12:59;100047.53;;;16.52;59.59
67517;BME280;54359;59.124;37.910;2022-09-13T10:18:32;100027.47;;;16.66;59.39
67517;BME280;54359;59.124;37.910;2022-09-13T10:21:31;100036.69;;;16.89;59.32
67517;BME280;54359;59.124;37.910;2022-09-13T10:24:15;100003.88;;;16.83;59.20
67517;BME280;54359;59.124;37.910;2022-09-13T10:26:41;100015.63;;;17.07;59.09
67517;BME280;54359;59.124;37.910;2022-09-13T10:29:09;100011.06;;;17.22;59.01
67517;BME280;54359;59.124;37.910;2022-09-13T10:31:41;100013.00;;;17.62;59.58
67517;BME280;54359;59.124;37.910;2022-09-13T10:37:03;99991.13;;;18.59;58.59
67517;BME280;54359;59.124;37.910;2022-09-13T10:39:34;100003.00;;;19.12;58.41
67517;BME280;54359;59.124;37.910;2022-09-13T10:42:16;99997.75;;;19.46;57.97
67517;BME280;54359;59.124;37.910;2022-09-13T10:44:57;99973.72;;;19.69;58.03
67517;BME280;54359;59.124;37.910;2022-09-13T10:47:28;99963.59;;;20.19;58.08
67517;BME280;54359;59.124;37.910;2022-09-13T10:50:10;99989.72;;;20.77;57.64
67517;BME280;54359;59.124;37.910;2022-09-13T10:52:51;99964.50;;;21.04;57.62
67517;BME280;54359;59.124;37.910;2022-09-13T11:01:03;99947.25;;;21.99;57.09
67517;BME280;54359;59.124;37.910;2022-09-13T11:06:58;99955.88;;;22.48;56.66
67517;BME280;54359;59.124;37.910;2022-09-13T11:12:41;99966.19;;;22.97;56.75
67517;BME280;54359;59.124;37.910;2022-09-13T11:19:10;99945.75;;;24.25;56.31
67517;BME280;54359;59.124;37.910;2022-09-13T11:22:39;99933.31;;;24.84;55.62
67517;BME280;54359;59.124;37.910;2022-09-13T11:28:33;99946.19;;;26.09;55.17
67517;BME280;54359;59.124;37.910;2022-09-13T11:33:43;99939.19;;;26.88;54.63
67517;BME280;54359;59.124;37.910;2022-09-13T11:36:38;99914.09;;;27.11;54.32
67517;BME280;54359;59.124;37.910;2022-09-13T11:45:24;99932.66;;;27.54;54.05
67517;BME280;54359;59.124;37.910;2022-09-13T11:54:57;99909.91;;;27.23;53.48
67517;BME280;54359;59.124;37.910;2022-09-13T11:57:05;99903.84;;;26.90;53.35
67517;BME280;54359;59.124;37.910;2022-09-13T12:00:05;99907.03;;;27.12;53.80
67517;BME280;54359;59.124;37.910;2022-09-13T12:06:10;99900.72;;;28.56;52.98
67517;BME280;54359;59.124;37.910;2022-09-13T12:09:19;99895.78;;;29.04;52.07
67517;BME280;54359;59.124;37.910;2022-09-13T12:12:31;99891.88;;;29.36;52.77
67517;BME280;54359;59.124;37.910;2022-09-13T12:15:13;99862.00;;;29.72;52.46
67517;BME280;54359;59.124;37.910;2022-09-13T12:17:59;99835.75;;;29.93;51.95
67517;BME280;54359;59.124;37.910;2022-09-13T12:20:34;99856.09;;;30.17;52.10
67517;BME280;54359;59.124;37.910;2022-09-13T12:23:35;99869.19;;;30.44;51.83
67517;BME280;54359;59.124;37.910;2022-09-13T12:27:15;99867.22;;;30.35;52.09
67517;BME280;54359;59.124;37.910;2022-09-13T12:30:04;99865.13;;;29.90;52.78
67517;BME280;54359;59.124;37.910;2022-09-13T12:32:44;99849.03;;;29.67;52.95
67517;BME280;54359;59.124;37.910;2022-09-13T12:35:39;99834.44;;;29.49;52.87
67517;BME280;54359;59.124;37.910;2022-09-13T12:38:56;99862.75;;;29.98;52.09
67517;BME280;54359;59.124;37.910;2022-09-13T12:41:50;99848.88;;;30.19;51.71
67517;BME280;54359;59.124;37.910;2022-09-13T12:53:54;99857.19;;;30.98;51.20
67517;BME280;54359;59.124;37.910;2022-09-13T13:02:49;99817.84;;;29.84;50.85
67517;BME280;54359;59.124;37.910;2022-09-13T13:05:32;99826.09;;;29.42;51.29
67517;BME280;54359;59.124;37.910;2022-09-13T13:08:04;99841.56;;;29.36;51.33
67517;BME280;54359;59.124;37.910;2022-09-13T13:13:25;99837.69;;;28.63;51.52
67517;BME280;54359;59.124;37.910;2022-09-13T13:16:25;99838.22;;;28.55;51.29
67517;BME280;54359;59.124;37.910;2022-09-13T13:19:33;99834.06;;;28.24;50.83
67517;BME280;54359;59.124;37.910;2022-09-13T13:25:34;99828.31;;;27.90;50.55
67517;BME280;54359;59.124;37.910;2022-09-13T13:33:52;99831.91;;;27.75;51.02
67517;BME280;54359;59.124;37.910;2022-09-13T13:36:26;99825.97;;;27.85;50.63
67517;BME280;54359;59.124;37.910;2022-09-13T13:38:55;99818.03;;;27.85;50.83
67517;BME280;54359;59.124;37.910;2022-09-13T13:41:35;99835.59;;;28.14;50.58
67517;BME280;54359;59.124;37.910;2022-09-13T13:46:37;99793.59;;;27.40;51.00
67517;BME280;54359;59.124;37.910;2022-09-13T13:55:01;99786.69;;;27.23;50.19
67517;BME280;54359;59.124;37.910;2022-09-13T13:57:42;99831.47;;;27.39;50.05
67517;BME280;54359;59.124;37.910;2022-09-13T14:00:25;99820.03;;;27.10;50.27
67517;BME280;54359;59.124;37.910;2022-09-13T14:05:59;99832.97;;;27.58;50.17
67517;BME280;54359;59.124;37.910;2022-09-13T14:14:39;99836.34;;;28.43;49.45
67517;BME280;54359;59.124;37.910;2022-09-13T14:21:28;99806.06;;;28.34;48.96
67517;BME280;54359;59.124;37.910;2022-09-13T14:24:20;99827.97;;;28.09;49.36
67517;BME280;54359;59.124;37.910;2022-09-13T14:26:56;99807.47;;;27.85;49.38
67517;BME280;54359;59.124;37.910;2022-09-13T14:29:28;99802.00;;;27.88;49.50
67517;BME280;54359;59.124;37.910;2022-09-13T14:32:03;99801.84;;;28.04;49.62
67517;BME280;54359;59.124;37.910;2022-09-13T14:34:34;99796.59;;;28.17;49.17
67517;BME280;54359;59.124;37.910;2022-09-13T14:42:47;99821.81;;;28.63;48.89
67517;BME280;54359;59.124;37.910;2022-09-13T14:48:18;99803.69;;;28.17;49.22
67517;BME280;54359;59.124;37.910;2022-09-13T14:51:45;99804.06;;;27.98;49.36
67517;BME280;54359;59.124;37.910;2022-09-13T14:54:45;99814.47;;;27.86;49.40
67517;BME280;54359;59.124;37.910;2022-09-13T14:58:24;99817.09;;;27.72;49.28
67517;BME280;54359;59.124;37.910;2022-09-13T15:01:17;99805.34;;;27.49;49.38
67517;BME280;54359;59.124;37.910;2022-09-13T15:03:46;99797.09;;;26.82;49.49
67517;BME280;54359;59.124;37.910;2022-09-13T15:06:25;99771.88;;;25.69;49.82
67517;BME280;54359;59.124;37.910;2022-09-13T15:09:25;99804.75;;;25.13;50.60
67517;BME280;54359;59.124;37.910;2022-09-13T15:12:26;99814.47;;;24.78;50.83
67517;BME280;54359;59.124;37.910;2022-09-13T15:21:46;99803.03;;;23.88;51.11
67517;BME280;54359;59.124;37.910;2022-09-13T15:24:27;99785.06;;;23.60;51.31
67517;BME280;54359;59.124;37.910;2022-09-13T15:27:19;99777.47;;;23.54;51.09
67517;BME280;54359;59.124;37.910;2022-09-13T15:30:01;99795.28;;;23.47;50.77
67517;BME280;54359;59.124;37.910;2022-09-13T15:32:46;99773.00;;;23.18;50.84
67517;BME280;54359;59.124;37.910;2022-09-13T15:35:39;99799.91;;;23.03;50.80
67517;BME280;54359;59.124;37.910;2022-09-13T15:38:23;99764.22;;;22.37;50.82
67517;BME280;54359;59.124;37.910;2022-09-13T15:41:12;99805.59;;;22.07;51.24
67517;BME280;54359;59.124;37.910;2022-09-13T15:43:38;99786.84;;;21.50;51.64
67517;BME280;54359;59.124;37.910;2022-09-13T15:46:05;99778.56;;;21.14;51.88
67517;BME280;54359;59.124;37.910;2022-09-13T15:48:35;99760.13;;;20.69;51.73
67517;BME280;54359;59.124;37.910;2022-09-13T15:53:34;99763.09;;;19.77;51.89
67517;BME280;54359;59.124;37.910;2022-09-13T15:56:02;99780.00;;;19.34;52.27
67517;BME280;54359;59.124;37.910;2022-09-13T15:58:29;99781.69;;;19.05;52.37
67517;BME280;54359;59.124;37.910;2022-09-13T16:00:55;99766.25;;;18.63;52.48
67517;BME280;54359;59.124;37.910;2022-09-13T16:03:21;99779.56;;;18.53;52.46
67517;BME280;54359;59.124;37.910;2022-09-13T16:05:48;99756.34;;;18.09;52.47
67517;BME280;54359;59.124;37.910;2022-09-13T16:08:16;99758.59;;;17.87;52.81
67517;BME280;54359;59.124;37.910;2022-09-13T16:10:43;99744.75;;;17.46;52.58
67517;BME280;54359;59.124;37.910;2022-09-13T16:13:11;99790.19;;;17.67;52.73
67517;BME280;54359;59.124;37.910;2022-09-13T16:15:44;99787.06;;;17.51;52.72
67517;BME280;54359;59.124;37.910;2022-09-13T16:18:12;99758.09;;;17.29;52.71
67517;BME280;54359;59.124;37.910;2022-09-13T16:20:38;99788.38;;;17.28;52.85
67517;BME280;54359;59.124;37.910;2022-09-13T16:23:04;99799.72;;;17.24;52.91
67517;BME280;54359;59.124;37.910;2022-09-13T16:29:05;99773.63;;;16.87;52.89
67517;BME280;54359;59.124;37.910;2022-09-13T16:31:31;99744.53;;;16.66;52.87
67517;BME280;54359;59.124;37.910;2022-09-13T16:33:57;99775.59;;;16.71;53.07
67517;BME280;54359;59.124;37.910;2022-09-13T16:36:23;99775.03;;;16.55;52.96
67517;BME280;54359;59.124;37.910;2022-09-13T16:38:56;99760.66;;;16.36;53.15
67517;BME280;54359;59.124;37.910;2022-09-13T16:41:25;99743.88;;;16.04;53.32
67517;BME280;54359;59.124;37.910;2022-09-13T16:43:53;99789.50;;;16.16;53.65
67517;BME280;54359;59.124;37.910;2022-09-13T16:46:24;99794.94;;;15.99;53.63
67517;BME280;54359;59.124;37.910;2022-09-13T16:48:53;99776.97;;;15.86;53.58
67517;BME280;54359;59.124;37.910;2022-09-13T16:51:20;99775.44;;;15.72;53.74